Currently 51°F in Riverside (Orangecrest), California, USA
51°F
52°F / 50°F
8 mph SW
0.00"
Monday, March 1, 2021 4:35 AM PST

Riverside (Orangecrest), California Weather Summary
Last 36 Hours

Temperature Winds Hourly Humidity Dewpoint
Time Report Norm Report Norm Max Gusts Precip. Rpt. Norm Rpt. Norm Pressure
1Mon 04:35 AM  50.5°F  49°F  8 mph SW  3 mph  12 mph  0.00"  13%  50%  -1°F  31°F  N/A
Mon 04:00 AM  50.1°F  49°F  9 mph SW  3 mph  14 mph  0.00"  13%  51%  -1°F  31°F  N/A
3Mon 03:38 AM  49.6°F  50°F  4 mph SW  3 mph  8 mph  ----  14%  51%  0°F  31°F  N/A
Mon 03:00 AM  50.3°F  50°F  9 mph SW  3 mph  19 mph  0.00"  14%  49%  0°F  31°F  N/A
Mon 02:00 AM  50.8°F  51°F  9 mph SW  3 mph  21 mph  0.00"  13%  49%  0°F  31°F  N/A
2Mon 01:19 AM  52.0°F  51°F  10 mph SW  4 mph  21 mph  ----  11%  49%  -3°F  32°F  N/A
Mon 01:00 AM  50.7°F  51°F  9 mph SW  4 mph  15 mph  0.00"  12%  49%  -2°F  32°F  N/A
Mon 12:00 AM  51.7°F  52°F  4 mph SW  3 mph  17 mph  0.00"  12%  48%  -1°F  32°F  N/A
Sun 11:00 PM  52.2°F  52°F  8 mph SW  3 mph  14 mph  0.00"  11%  53%  -3°F  35°F  N/A
Sun 10:00 PM  52.4°F  53°F  3 mph SW  3 mph  9 mph  0.00"  12%  52%  -2°F  35°F  N/A
Sun 09:00 PM  53.2°F  54°F  6 mph SW  3 mph  10 mph  0.00"  11%  48%  -2°F  34°F  N/A
Sun 08:00 PM  54.4°F  55°F  3 mph SW  4 mph  13 mph  0.00"  11%  45%  -1°F  33°F  N/A
Sun 07:00 PM  54.9°F  57°F  5 mph SW  4 mph  14 mph  0.00"  11%  42%  -1°F  33°F  N/A
Sun 06:00 PM  56.5°F  59°F  7 mph SE  4 mph  17 mph  0.00"  10%  38%  -1°F  32°F  N/A
Sun 05:00 PM  59.0°F  62°F  9 mph SE  5 mph  18 mph  0.00"  9%  33%  -1°F  31°F  N/A
Sun 04:00 PM  60.5°F  64°F  calm  5 mph  10 mph  0.00"  11%  28%  2°F  29°F  N/A
Sun 03:00 PM  62.0°F  64°F  calm  5 mph  11 mph  0.00"  9%  26%  1°F  27°F  N/A
Sun 02:00 PM  61.0°F  64°F  calm  6 mph  12 mph  0.00"  10%  26%  1°F  27°F  N/A
Sun 01:00 PM  60.4°F  63°F  calm  5 mph  15 mph  0.00"  10%  27%  1°F  27°F  N/A
Sun 12:00 PM  58.5°F  62°F  4 mph SW  6 mph  19 mph  0.00"  13%  27%  5°F  26°F  N/A
Sun 11:00 AM  57.5°F  60°F  2 mph N  5 mph  20 mph  0.00"  13%  30%  5°F  27°F  N/A
Sun 10:00 AM  54.9°F  58°F  calm  5 mph  15 mph  0.00"  15%  35%  7°F  29°F  N/A
Sun 09:00 AM  54.1°F  55°F  calm  5 mph  16 mph  0.00"  18%  42%  9°F  31°F  N/A
Sun 08:00 AM  51.4°F  52°F  2 mph SW  4 mph  15 mph  0.00"  22%  48%  12°F  32°F  N/A
Sun 07:00 AM  48.9°F  49°F  1 mph SW  4 mph  8 mph  0.00"  23%  52%  11°F  31°F  N/A
Sun 06:00 AM  48.4°F  48°F  5 mph SW  4 mph  14 mph  0.00"  23%  54%  10°F  31°F  N/A
Sun 05:00 AM  49.4°F  49°F  6 mph SW  3 mph  16 mph  0.00"  20%  54%  8°F  32°F  N/A
Sun 04:00 AM  51.1°F  49°F  4 mph SW  3 mph  16 mph  0.00"  21%  54%  11°F  32°F  N/A
Sun 03:00 AM  50.5°F  50°F  5 mph SW  3 mph  10 mph  0.00"  20%  52%  10°F  32°F  N/A
Sun 02:00 AM  51.8°F  50°F  calm  3 mph  5 mph  0.00"  29%  52%  19°F  32°F  N/A
Sun 01:00 AM  52.9°F  51°F  3 mph SW  3 mph  12 mph  0.00"  26%  52%  17°F  33°F  N/A
Sun 12:00 AM  52.3°F  52°F  6 mph SW  3 mph  10 mph  0.00"  43%  51%  30°F  33°F  N/A
Sat 11:00 PM  49.9°F  52°F  calm  3 mph  6 mph  0.00"  76%  53%  42°F  35°F  N/A
Sat 10:00 PM  51.6°F  53°F  3 mph SW  3 mph  10 mph  0.00"  71%  52%  42°F  35°F  N/A
Sat 09:00 PM  55.5°F  54°F  3 mph SW  3 mph  12 mph  0.00"  31%  50%  24°F  35°F  N/A
Sat 08:00 PM  55.7°F  55°F  3 mph SW  4 mph  9 mph  0.00"  56%  46%  39°F  34°F  N/A
Sat 07:00 PM  57.2°F  56°F  5 mph SW  4 mph  9 mph  0.00"  56%  43%  41°F  33°F  N/A
Sat 06:00 PM  60.7°F  59°F  2 mph SW  4 mph  11 mph  0.00"  42%  39%  37°F  32°F  N/A
Sat 05:00 PM  63.6°F  61°F  6 mph S  5 mph  11 mph  0.00"  38%  34%  37°F  32°F  N/A

  1. Current weather data. No green row appears if the current weather data is also the high or low for the current day.
  2. High temperature for the current day.
  3. Low temperature for the current day.

The Riverside (Orangecrest), California weather pages are a service of WeatherCurrents.
Copyright ©2021  WeatherCurrents. All rights reserved. - Submit questions and comments - Privacy Policy

This page automatically refreshes every 10 minutes.